createdAt,value
2018-03-04T00:01:56.796Z,1.60
2018-03-04T00:04:29.906Z,1.58
2018-03-04T00:07:03.209Z,1.57
2018-03-04T00:09:30.955Z,1.55
2018-03-04T00:11:58.461Z,1.55
2018-03-04T00:14:26.013Z,1.57
2018-03-04T00:16:53.472Z,1.54
2018-03-04T00:19:21.132Z,1.56
2018-03-04T00:21:48.676Z,1.53
2018-03-04T00:24:16.605Z,1.53
2018-03-04T00:26:44.078Z,1.54
2018-03-04T00:29:12.098Z,1.48
2018-03-04T00:31:40.137Z,1.42
2018-03-04T00:34:09.336Z,1.39
2018-03-04T00:36:37.226Z,1.38
2018-03-04T00:39:05.837Z,1.38
2018-03-04T00:41:33.833Z,1.42
2018-03-04T00:44:01.661Z,1.45
2018-03-04T00:46:29.169Z,1.43
2018-03-04T00:48:56.800Z,1.37
2018-03-04T00:51:24.279Z,1.35
2018-03-04T00:53:52.686Z,1.29
2018-03-04T00:56:20.244Z,1.23
2018-03-04T00:58:49.112Z,1.17
2018-03-04T01:01:16.838Z,1.24
2018-03-04T01:03:47.176Z,1.18
2018-03-04T01:06:14.951Z,1.14
2018-03-04T01:08:42.578Z,1.16
2018-03-04T01:11:11.344Z,1.09
2018-03-04T01:13:38.822Z,1.12
2018-03-04T01:16:06.517Z,1.17
2018-03-04T01:18:33.995Z,1.20
2018-03-04T01:21:01.929Z,1.29
2018-03-04T01:23:29.463Z,1.38
2018-03-04T01:25:57.263Z,1.42
2018-03-04T01:28:26.472Z,1.48
2018-03-04T01:30:53.940Z,1.52
2018-03-04T01:33:21.539Z,1.60
2018-03-04T01:35:49.107Z,1.63
2018-03-04T01:38:16.619Z,1.67
2018-03-04T01:40:44.958Z,1.71
2018-03-04T01:43:12.499Z,1.72
2018-03-04T01:45:40.051Z,1.73
2018-03-04T01:48:07.620Z,1.71
2018-03-04T01:50:35.798Z,1.70
2018-03-04T01:53:04.446Z,1.70
2018-03-04T01:55:32.916Z,1.70
2018-03-04T01:58:00.424Z,1.70
2018-03-04T02:00:27.946Z,1.68
2018-03-04T02:02:55.750Z,1.65
2018-03-04T02:05:23.235Z,1.63
2018-03-04T02:07:50.738Z,1.54
2018-03-04T02:10:18.251Z,1.51
2018-03-04T02:12:45.715Z,1.47
2018-03-04T02:15:13.465Z,1.40
2018-03-04T02:17:40.967Z,1.35
2018-03-04T02:20:08.443Z,1.28
2018-03-04T02:22:35.968Z,1.25
2018-03-04T02:25:03.451Z,1.26
2018-03-04T02:27:30.984Z,1.29
2018-03-04T02:29:58.498Z,1.34
2018-03-04T02:32:26.014Z,1.36
2018-03-04T02:34:53.540Z,1.40
2018-03-04T02:37:21.298Z,1.43
2018-03-04T02:39:48.775Z,1.49
2018-03-04T02:42:16.236Z,1.62
2018-03-04T02:44:43.732Z,1.71
2018-03-04T02:47:11.215Z,1.79
2018-03-04T02:49:38.983Z,1.84
2018-03-04T02:52:06.883Z,1.88
2018-03-04T02:54:34.363Z,1.93
2018-03-04T02:57:01.881Z,1.95
2018-03-04T02:59:29.371Z,1.95
2018-03-04T03:01:56.839Z,1.95
2018-03-04T03:04:24.363Z,1.96
2018-03-04T03:06:51.891Z,1.98
2018-03-04T03:09:19.343Z,1.99
2018-03-04T03:11:46.823Z,1.99
2018-03-04T03:14:14.323Z,1.97
2018-03-04T03:16:41.798Z,2.01
2018-03-04T03:19:10.012Z,2.02
2018-03-04T03:21:37.500Z,2.06
2018-03-04T03:24:06.567Z,2.04
2018-03-04T03:26:34.373Z,2.01
2018-03-04T03:29:01.899Z,2.02
2018-03-04T03:31:29.391Z,2.00
2018-03-04T03:33:59.295Z,1.99
2018-03-04T03:36:29.013Z,1.91
2018-03-04T03:38:56.624Z,1.80
2018-03-04T03:41:24.111Z,1.68
2018-03-04T03:43:51.590Z,1.53
2018-03-04T03:46:19.107Z,1.39
2018-03-04T03:48:47.162Z,1.23
2018-03-04T03:51:14.652Z,1.13
2018-03-04T03:53:42.132Z,1.07
2018-03-04T03:56:09.614Z,0.97
2018-03-04T03:58:37.086Z,0.94
2018-03-04T04:01:04.599Z,0.96
2018-03-04T04:03:32.075Z,0.96
2018-03-04T04:05:59.563Z,0.89
2018-03-04T04:08:27.031Z,0.88
2018-03-04T04:10:54.531Z,0.89
2018-03-04T04:13:21.991Z,0.89
2018-03-04T04:15:49.478Z,0.88
2018-03-04T04:18:16.944Z,0.93
2018-03-04T04:20:44.434Z,0.90
2018-03-04T04:23:11.891Z,0.88
2018-03-04T04:25:39.378Z,0.80
2018-03-04T04:28:06.845Z,0.86
2018-03-04T04:30:34.383Z,0.84
2018-03-04T04:33:01.833Z,0.79
2018-03-04T04:35:29.334Z,0.71
2018-03-04T04:37:56.795Z,0.69
2018-03-04T04:40:24.262Z,0.62
2018-03-04T04:42:51.748Z,0.64
2018-03-04T04:45:19.211Z,0.60
2018-03-04T04:47:46.703Z,0.54
2018-03-04T04:50:14.199Z,0.50
2018-03-04T04:52:42.615Z,0.47
2018-03-04T04:55:11.246Z,0.41
2018-03-04T04:57:38.727Z,0.37
2018-03-04T05:00:06.188Z,0.30
2018-03-04T05:02:33.692Z,0.30
2018-03-04T05:05:01.156Z,0.29
2018-03-04T05:07:28.657Z,0.30
2018-03-04T05:09:56.130Z,0.25
2018-03-04T05:12:24.712Z,0.46
2018-03-04T05:14:52.180Z,0.65
2018-03-04T05:17:19.659Z,0.58
2018-03-04T05:19:47.125Z,0.56
2018-03-04T05:22:14.603Z,0.59
2018-03-04T05:24:42.075Z,0.64
2018-03-04T05:27:09.568Z,0.64
2018-03-04T05:29:37.044Z,0.61
2018-03-04T05:32:04.542Z,0.59
2018-03-04T05:34:32.008Z,0.53
2018-03-04T05:36:59.503Z,0.59
2018-03-04T05:39:26.963Z,0.61
2018-03-04T05:41:54.452Z,0.60
2018-03-04T05:44:21.966Z,0.49
2018-03-04T05:46:49.464Z,0.48
2018-03-04T05:49:16.932Z,0.45
2018-03-04T05:51:44.422Z,0.52
2018-03-04T05:54:11.886Z,0.72
2018-03-04T05:56:39.383Z,0.76
2018-03-04T05:59:06.848Z,0.83
2018-03-04T06:01:34.332Z,0.72
2018-03-04T06:04:02.687Z,0.63
2018-03-04T06:06:30.152Z,0.66
2018-03-04T06:08:57.651Z,0.65
2018-03-04T06:11:25.125Z,0.62
2018-03-04T06:13:52.616Z,0.65
2018-03-04T06:16:20.091Z,0.58
2018-03-04T06:18:47.579Z,0.56
2018-03-04T06:21:15.047Z,0.62
2018-03-04T06:23:42.533Z,0.73
2018-03-04T06:26:09.999Z,0.87
2018-03-04T06:28:37.484Z,1.00
2018-03-04T06:31:04.947Z,1.15
2018-03-04T06:33:32.440Z,1.23
2018-03-04T06:35:59.908Z,1.34
2018-03-04T06:38:27.391Z,1.41
2018-03-04T06:40:54.855Z,1.49
2018-03-04T06:43:22.337Z,1.59
2018-03-04T06:45:49.800Z,1.64
2018-03-04T06:48:17.278Z,1.67
2018-03-04T06:50:44.748Z,1.75
2018-03-04T06:53:12.235Z,1.84
2018-03-04T06:55:39.699Z,1.94
2018-03-04T06:58:07.183Z,2.04
2018-03-04T07:00:34.647Z,2.18
2018-03-04T07:03:02.142Z,2.27
2018-03-04T07:05:29.611Z,2.33
2018-03-04T07:07:57.097Z,2.50
2018-03-04T07:10:24.575Z,2.64
2018-03-04T07:12:52.067Z,2.78
2018-03-04T07:15:19.531Z,2.91
2018-03-04T07:17:47.012Z,3.04
2018-03-04T07:20:14.472Z,3.10
2018-03-04T07:22:41.934Z,3.16
2018-03-04T07:25:09.425Z,3.25
2018-03-04T07:27:36.896Z,3.38
2018-03-04T07:30:04.378Z,3.45
2018-03-04T07:32:31.835Z,3.58
2018-03-04T07:34:59.340Z,3.85
2018-03-04T07:37:26.811Z,4.13
2018-03-04T07:39:54.299Z,4.42
2018-03-04T07:42:21.767Z,4.51
2018-03-04T07:44:49.259Z,4.49
2018-03-04T07:47:16.756Z,4.46
2018-03-04T07:49:44.214Z,4.44
2018-03-04T07:52:11.699Z,4.38
2018-03-04T07:54:39.183Z,4.30
2018-03-04T07:57:06.646Z,4.24
2018-03-04T07:59:34.187Z,4.11
2018-03-04T08:02:01.634Z,4.08
2018-03-04T08:04:29.127Z,4.08
2018-03-04T08:06:56.599Z,4.08
2018-03-04T08:09:24.092Z,4.15
2018-03-04T08:11:51.555Z,4.21
2018-03-04T08:14:19.054Z,4.23
2018-03-04T08:16:46.521Z,4.20
2018-03-04T08:19:14.003Z,4.17
2018-03-04T08:21:41.463Z,4.31
2018-03-04T08:24:08.953Z,4.60
2018-03-04T08:26:48.352Z,5.07
2018-03-04T08:29:15.839Z,5.40
2018-03-04T08:31:43.294Z,5.45
2018-03-04T08:34:10.775Z,5.68
2018-03-04T08:36:38.232Z,5.82
2018-03-04T08:39:05.718Z,5.89
2018-03-04T08:41:33.184Z,5.83
2018-03-04T08:44:00.668Z,5.89
2018-03-04T08:46:29.344Z,5.89
2018-03-04T08:48:56.837Z,5.93
2018-03-04T08:51:24.299Z,5.87
2018-03-04T08:53:51.759Z,5.72
2018-03-04T08:56:19.268Z,5.71
2018-03-04T08:58:46.811Z,5.82
2018-03-04T09:01:14.286Z,5.97
2018-03-04T09:03:41.744Z,6.02
2018-03-04T09:06:09.239Z,6.16
2018-03-04T09:08:36.755Z,6.45
2018-03-04T09:11:04.252Z,6.72
2018-03-04T09:13:31.715Z,6.94
2018-03-04T09:15:59.215Z,7.08
2018-03-04T09:18:26.679Z,7.16
2018-03-04T09:20:54.154Z,7.20
2018-03-04T09:23:21.657Z,7.11
2018-03-04T09:25:49.127Z,6.76
2018-03-04T09:28:16.583Z,6.64
2018-03-04T09:30:44.093Z,6.64
2018-03-04T09:33:11.600Z,6.65
2018-03-04T09:35:39.059Z,6.61
2018-03-04T09:38:06.529Z,6.64
2018-03-04T09:40:34.018Z,6.70
2018-03-04T09:43:01.476Z,6.63
2018-03-04T09:45:28.995Z,6.76
2018-03-04T09:47:56.436Z,6.84
2018-03-04T09:50:23.925Z,6.95
2018-03-04T09:52:51.387Z,7.05
2018-03-04T09:55:18.873Z,7.16
2018-03-04T09:57:46.339Z,7.25
2018-03-04T10:00:13.823Z,7.39
2018-03-04T10:02:41.323Z,7.47
2018-03-04T10:05:08.825Z,7.54
2018-03-04T10:07:36.290Z,7.55
2018-03-04T10:10:03.819Z,7.62
2018-03-04T10:12:31.284Z,7.59
2018-03-04T10:14:58.773Z,7.50
2018-03-04T10:17:26.251Z,7.47
2018-03-04T10:19:53.714Z,7.56
2018-03-04T10:22:21.208Z,7.59
2018-03-04T10:24:48.658Z,7.61
2018-03-04T10:27:16.147Z,7.61
2018-03-04T10:29:43.608Z,7.60
2018-03-04T10:32:11.089Z,7.69
2018-03-04T10:34:38.556Z,7.78
2018-03-04T10:37:06.040Z,7.82
2018-03-04T10:39:33.527Z,7.88
2018-03-04T10:42:01.059Z,7.92
2018-03-04T10:44:28.526Z,7.79
2018-03-04T10:46:56.020Z,7.81
2018-03-04T10:49:23.518Z,7.82
2018-03-04T10:51:51.470Z,7.89
2018-03-04T10:54:18.922Z,7.95
2018-03-04T10:56:46.403Z,7.99
2018-03-04T10:59:13.859Z,8.08
2018-03-04T11:01:44.337Z,8.13
2018-03-04T11:04:11.800Z,8.18
2018-03-04T11:06:39.721Z,8.18
2018-03-04T11:09:07.182Z,8.24
2018-03-04T11:11:34.714Z,8.34
2018-03-04T11:14:02.184Z,8.25
2018-03-04T11:16:29.664Z,8.08
2018-03-04T11:18:57.132Z,7.72
2018-03-04T11:21:24.603Z,7.85
2018-03-04T11:23:52.075Z,7.90
2018-03-04T11:26:19.586Z,8.04
2018-03-04T11:28:47.619Z,8.04
2018-03-04T11:31:15.075Z,8.28
2018-03-04T11:33:42.540Z,7.94
2018-03-04T11:36:10.027Z,8.26
2018-03-04T11:38:37.496Z,8.47
2018-03-04T11:41:04.991Z,8.47
2018-03-04T11:43:32.463Z,8.63
2018-03-04T11:46:01.847Z,8.78
2018-03-04T11:48:29.475Z,8.76
2018-03-04T11:50:56.948Z,8.64
2018-03-04T11:53:24.456Z,8.85
2018-03-04T11:55:51.974Z,9.03
2018-03-04T11:58:19.431Z,9.21
2018-03-04T12:00:47.156Z,9.26
2018-03-04T12:03:14.635Z,9.29
2018-03-04T12:05:42.099Z,9.45
2018-03-04T12:08:09.608Z,9.54
2018-03-04T12:10:37.080Z,9.58
2018-03-04T12:13:04.607Z,9.67
2018-03-04T12:15:32.075Z,9.76
2018-03-04T12:17:59.846Z,9.80
2018-03-04T12:20:27.308Z,9.94
2018-03-04T12:22:54.808Z,9.75
2018-03-04T12:25:22.337Z,10.07
2018-03-04T12:27:49.835Z,10.09
2018-03-04T12:30:18.029Z,9.94
2018-03-04T12:32:45.535Z,10.31
2018-03-04T12:35:14.224Z,10.61
2018-03-04T12:37:41.748Z,10.81
2018-03-04T12:40:11.347Z,11.00
2018-03-04T12:42:38.911Z,10.90
2018-03-04T12:45:06.512Z,11.14
2018-03-04T12:47:34.066Z,11.30
2018-03-04T12:50:01.514Z,11.51
2018-03-04T12:52:29.014Z,11.55
2018-03-04T12:54:56.491Z,11.72
2018-03-04T12:57:24.059Z,11.84
2018-03-04T12:59:51.467Z,11.91
2018-03-04T13:02:18.957Z,12.09
2018-03-04T13:04:46.423Z,12.22
2018-03-04T13:07:14.358Z,12.41
2018-03-04T13:09:41.839Z,12.52
2018-03-04T13:12:09.355Z,12.48
2018-03-04T13:14:37.147Z,11.91
2018-03-04T13:17:04.628Z,11.41
2018-03-04T13:19:32.140Z,11.65
2018-03-04T13:21:59.633Z,11.77
2018-03-04T13:24:27.140Z,11.82
2018-03-04T13:26:54.607Z,11.81
2018-03-04T13:29:22.112Z,11.75
2018-03-04T13:31:49.584Z,11.83
2018-03-04T13:34:17.147Z,12.08
2018-03-04T13:36:44.585Z,12.49
2018-03-04T13:39:12.091Z,12.33
2018-03-04T13:41:39.566Z,13.12
2018-03-04T13:44:07.064Z,12.61
2018-03-04T13:46:34.553Z,12.74
2018-03-04T13:49:02.056Z,12.94
2018-03-04T13:51:29.543Z,13.66
2018-03-04T13:53:57.051Z,14.53
2018-03-04T13:56:24.529Z,13.56
2018-03-04T13:58:52.008Z,12.96
2018-03-04T14:01:19.518Z,13.74
2018-03-04T14:03:46.992Z,14.27
2018-03-04T14:06:14.482Z,12.88
2018-03-04T14:08:41.959Z,11.75
2018-03-04T14:11:09.464Z,11.58
2018-03-04T14:13:36.943Z,11.74
2018-03-04T14:16:04.443Z,12.79
2018-03-04T14:18:31.911Z,13.77
2018-03-04T14:20:59.418Z,14.08
2018-03-04T14:23:26.911Z,14.59
2018-03-04T14:25:54.882Z,14.71
2018-03-04T14:28:22.355Z,14.28
2018-03-04T14:30:49.847Z,13.79
2018-03-04T14:33:17.311Z,13.46
2018-03-04T14:35:45.223Z,13.00
2018-03-04T14:38:12.687Z,12.07
2018-03-04T14:40:40.166Z,11.95
2018-03-04T14:43:07.664Z,11.84
2018-03-04T14:45:35.143Z,11.71
2018-03-04T14:48:02.635Z,11.66
2018-03-04T14:50:30.119Z,11.52
2018-03-04T14:52:57.653Z,11.38
2018-03-04T14:55:25.110Z,11.26
2018-03-04T14:57:52.607Z,11.17
2018-03-04T15:00:20.087Z,11.01
2018-03-04T15:02:47.580Z,10.84
2018-03-04T15:05:15.063Z,10.62
2018-03-04T15:07:42.547Z,10.53
2018-03-04T15:10:10.036Z,10.47
2018-03-04T15:12:37.535Z,10.29
2018-03-04T15:15:05.013Z,10.21
2018-03-04T15:17:32.498Z,10.10
2018-03-04T15:19:59.967Z,10.06
2018-03-04T15:22:27.459Z,10.04
2018-03-04T15:24:54.957Z,9.91
2018-03-04T15:27:22.425Z,9.82
2018-03-04T15:29:49.912Z,9.78
2018-03-04T15:32:17.379Z,9.60
2018-03-04T15:34:44.863Z,9.55
2018-03-04T15:37:12.331Z,9.44
2018-03-04T15:39:39.851Z,9.37
2018-03-04T15:42:07.307Z,9.28
2018-03-04T15:44:34.790Z,9.24
2018-03-04T15:47:02.255Z,9.18
2018-03-04T15:49:29.746Z,9.14
2018-03-04T15:51:57.203Z,9.07
2018-03-04T15:54:24.693Z,8.93
2018-03-04T15:56:52.156Z,8.81
2018-03-04T15:59:19.640Z,8.80
2018-03-04T16:01:47.158Z,8.79
2018-03-04T16:04:14.625Z,8.64
2018-03-04T16:06:42.123Z,8.64
2018-03-04T16:09:09.580Z,8.55
2018-03-04T16:11:37.112Z,8.56
2018-03-04T16:14:04.582Z,8.53
2018-03-04T16:16:32.071Z,8.51
2018-03-04T16:18:59.530Z,8.48
2018-03-04T16:21:27.012Z,8.42
2018-03-04T16:23:54.503Z,8.43
2018-03-04T16:26:21.992Z,8.37
2018-03-04T16:28:49.452Z,8.35
2018-03-04T16:31:16.939Z,8.35
2018-03-04T16:33:44.435Z,8.33
2018-03-04T16:36:11.931Z,8.29
2018-03-04T16:38:39.387Z,8.33
2018-03-04T16:41:06.875Z,8.30
2018-03-04T16:43:34.332Z,8.22
2018-03-04T16:46:01.846Z,8.08
2018-03-04T16:48:29.330Z,8.00
2018-03-04T16:50:56.795Z,7.96
2018-03-04T16:53:24.308Z,7.95
2018-03-04T16:55:51.776Z,7.88
2018-03-04T16:58:19.274Z,7.81
2018-03-04T17:00:46.754Z,7.84
2018-03-04T17:03:14.248Z,7.83
2018-03-04T17:05:41.711Z,7.81
2018-03-04T17:08:09.191Z,7.82
2018-03-04T17:10:36.679Z,7.78
2018-03-04T17:13:04.148Z,7.87
2018-03-04T17:15:31.607Z,7.80
2018-03-04T17:17:59.105Z,7.83
2018-03-04T17:20:26.565Z,7.79
2018-03-04T17:22:54.047Z,7.70
2018-03-04T17:25:21.627Z,7.68
2018-03-04T17:27:49.111Z,7.60
2018-03-04T17:30:16.666Z,7.61
2018-03-04T17:32:44.157Z,7.60
2018-03-04T17:35:11.639Z,7.69
2018-03-04T17:37:39.147Z,7.74
2018-03-04T17:40:06.595Z,7.78
2018-03-04T17:42:34.076Z,7.77
2018-03-04T17:45:01.581Z,7.69
2018-03-04T17:47:29.072Z,7.73
2018-03-04T17:49:56.549Z,7.81
2018-03-04T17:52:24.036Z,7.70
2018-03-04T17:54:51.495Z,7.71
2018-03-04T17:57:18.979Z,7.64
2018-03-04T17:59:46.450Z,7.57
2018-03-04T18:02:13.939Z,7.58
2018-03-04T18:04:41.403Z,7.57
2018-03-04T18:07:08.884Z,7.53
2018-03-04T18:09:36.353Z,7.60
2018-03-04T18:12:03.836Z,7.56
2018-03-04T18:14:31.299Z,7.50
2018-03-04T18:16:58.780Z,7.45
2018-03-04T18:19:26.242Z,7.36
2018-03-04T18:21:53.725Z,7.32
2018-03-04T18:24:21.178Z,7.33
2018-03-04T18:26:48.678Z,7.31
2018-03-04T18:29:16.140Z,7.29
2018-03-04T18:31:43.624Z,7.22
2018-03-04T18:34:11.080Z,7.13
2018-03-04T18:36:38.549Z,7.08
2018-03-04T18:39:06.036Z,7.09
2018-03-04T18:41:33.498Z,7.07
2018-03-04T18:44:00.974Z,7.05
2018-03-04T18:46:28.437Z,7.09
2018-03-04T18:48:55.920Z,7.05
2018-03-04T18:51:23.379Z,7.05
2018-03-04T18:53:50.878Z,6.99
2018-03-04T18:56:18.366Z,7.03
2018-03-04T18:58:45.863Z,6.98
2018-03-04T19:01:13.322Z,7.01
2018-03-04T19:03:40.803Z,6.98
2018-03-04T19:06:08.279Z,7.00
2018-03-04T19:08:35.755Z,7.05
2018-03-04T19:11:03.219Z,7.11
2018-03-04T19:13:30.762Z,7.14
2018-03-04T19:15:58.223Z,7.14
2018-03-04T19:18:25.699Z,7.14
2018-03-04T19:20:53.164Z,7.17
2018-03-04T19:23:20.645Z,7.18
2018-03-04T19:25:48.115Z,7.15
2018-03-04T19:28:15.612Z,7.18
2018-03-04T19:30:43.075Z,7.21
2018-03-04T19:33:10.559Z,7.14
2018-03-04T19:35:38.024Z,7.15
2018-03-04T19:38:05.496Z,7.07
2018-03-04T19:40:32.959Z,7.02
2018-03-04T19:43:00.428Z,7.00
2018-03-04T19:45:27.882Z,7.05
2018-03-04T19:47:55.359Z,7.02
2018-03-04T19:50:22.824Z,6.96
2018-03-04T19:52:50.306Z,6.95
2018-03-04T19:55:17.786Z,6.98
2018-03-04T19:57:45.238Z,7.00
2018-03-04T20:00:12.730Z,7.08
2018-03-04T20:02:40.196Z,7.00
2018-03-04T20:05:07.676Z,6.95
2018-03-04T20:07:35.146Z,6.89
2018-03-04T20:10:02.668Z,6.95
2018-03-04T20:12:30.172Z,6.75
2018-03-04T20:14:57.730Z,6.85
2018-03-04T20:17:25.204Z,6.87
2018-03-04T20:19:52.711Z,6.97
2018-03-04T20:22:20.176Z,7.10
2018-03-04T20:24:47.656Z,7.07
2018-03-04T20:27:15.128Z,7.14
2018-03-04T20:29:42.618Z,7.01
2018-03-04T20:32:10.079Z,7.01
2018-03-04T20:34:37.562Z,7.10
2018-03-04T20:37:05.028Z,7.13
2018-03-04T20:39:32.512Z,7.11
2018-03-04T20:41:59.976Z,7.12
2018-03-04T20:44:27.457Z,7.15
2018-03-04T20:46:54.928Z,7.15
2018-03-04T20:49:22.407Z,7.36
2018-03-04T20:51:49.875Z,7.44
2018-03-04T20:54:17.389Z,7.36
2018-03-04T20:56:44.860Z,7.23
2018-03-04T20:59:12.370Z,7.33
2018-03-04T21:01:39.848Z,7.34
2018-03-04T21:04:07.327Z,7.39
2018-03-04T21:06:34.813Z,7.48
2018-03-04T21:09:02.309Z,7.41
2018-03-04T21:11:29.773Z,7.46
2018-03-04T21:13:57.262Z,7.59
2018-03-04T21:16:24.723Z,7.79
2018-03-04T21:18:52.179Z,7.80
2018-03-04T21:21:19.662Z,7.87
2018-03-04T21:23:47.138Z,7.94
2018-03-04T21:26:14.623Z,8.00
2018-03-04T21:28:42.087Z,7.98
2018-03-04T21:31:09.580Z,8.12
2018-03-04T21:33:37.046Z,8.10
2018-03-04T21:36:04.524Z,8.15
2018-03-04T21:38:31.992Z,8.08
2018-03-04T21:40:59.468Z,8.14
2018-03-04T21:43:26.919Z,8.11
2018-03-04T21:45:54.396Z,8.17
2018-03-04T21:48:21.852Z,8.28
2018-03-04T21:50:49.328Z,8.23
2018-03-04T21:53:16.782Z,8.21
2018-03-04T21:55:44.297Z,8.29
2018-03-04T21:58:11.775Z,8.27
2018-03-04T22:00:39.252Z,8.35
2018-03-04T22:03:06.700Z,8.42
2018-03-04T22:05:34.176Z,8.40
2018-03-04T22:08:01.635Z,8.38
2018-03-04T22:10:29.111Z,8.48
2018-03-04T22:12:56.576Z,8.36
2018-03-04T22:15:24.063Z,8.36
2018-03-04T22:17:51.531Z,8.29
2018-03-04T22:20:19.004Z,8.23
2018-03-04T22:22:46.471Z,8.25
2018-03-04T22:25:13.968Z,8.31
2018-03-04T22:27:41.428Z,8.28
2018-03-04T22:30:08.911Z,8.26
2018-03-04T22:32:36.428Z,8.28
2018-03-04T22:35:03.932Z,8.19
2018-03-04T22:37:32.342Z,8.24
2018-03-04T22:40:05.627Z,8.15
2018-03-04T22:42:33.075Z,7.95
2018-03-04T22:45:02.529Z,7.87
2018-03-04T22:47:30.005Z,7.74
2018-03-04T22:49:57.504Z,7.53
2018-03-04T22:52:24.979Z,7.59
2018-03-04T22:54:52.435Z,7.72
2018-03-04T22:57:19.900Z,7.91
2018-03-04T22:59:47.347Z,7.87
2018-03-04T23:02:14.831Z,7.81
2018-03-04T23:04:42.291Z,7.77
2018-03-04T23:07:09.771Z,7.73
2018-03-04T23:09:37.254Z,7.66
2018-03-04T23:12:04.732Z,7.65
2018-03-04T23:14:32.187Z,7.70
2018-03-04T23:16:59.662Z,7.59
2018-03-04T23:19:27.113Z,7.49
2018-03-04T23:21:54.584Z,7.40
2018-03-04T23:24:22.035Z,7.33
2018-03-04T23:26:49.512Z,7.21
2018-03-04T23:29:16.972Z,7.03
2018-03-04T23:31:44.448Z,7.05
2018-03-04T23:34:11.907Z,6.91
2018-03-04T23:36:39.395Z,6.75
2018-03-04T23:39:06.849Z,6.59
2018-03-04T23:41:34.330Z,6.61
2018-03-04T23:44:01.790Z,6.66
2018-03-04T23:46:29.259Z,6.86
2018-03-04T23:48:56.719Z,7.00
2018-03-04T23:51:24.200Z,6.97
2018-03-04T23:53:51.651Z,6.83
2018-03-04T23:56:19.123Z,6.78
2018-03-04T23:58:46.603Z,6.87
